Time;durP1;ratioP1;P1;durP2;ratioP2;P2;SDS_P1;SDS_P2;PMS_P1;PMS_P2;Temp;Humidity;BMP_temperature;BMP_pressure;BME280_temperature;BME280_humidity;BME280_pressure;Samples;Min_cycle;Max_cycle;Signal;HPM_P1;HPM_P2
2021/12/08 19:20:31;;;;;;;23.92;5.90;;;;;;;4.37;85.12;99794.03;5066016;28;21007;-41
2021/12/08 19:22:57;;;;;;;11.07;4.28;;;;;;;4.40;84.53;99781.22;5057512;28;20036;-40
2021/12/08 19:25:24;;;;;;;25.02;5.20;;;;;;;4.39;84.44;99794.69;5032239;28;20096;-40
2021/12/08 19:27:51;;;;;;;23.38;5.47;;;;;;;4.37;84.78;99797.53;5049853;28;20053;-41
2021/12/08 19:30:18;;;;;;;22.80;6.10;;;;;;;4.36;84.65;99805.69;5046675;28;20045;-41
2021/12/08 19:32:44;;;;;;;21.40;5.83;;;;;;;4.36;85.00;99805.69;5047761;28;20449;-41
2021/12/08 19:35:10;;;;;;;18.92;5.50;;;;;;;4.36;84.71;99808.34;5046266;28;20140;-41
2021/12/08 19:37:36;;;;;;;17.38;5.22;;;;;;;4.35;84.70;99812.03;5046437;28;20064;-40
2021/12/08 19:40:03;;;;;;;20.27;5.45;;;;;;;4.34;84.89;99823.66;5046316;28;20481;-41
2021/12/08 19:42:28;;;;;;;21.17;5.25;;;;;;;4.33;84.68;99820.16;5047243;28;20144;-40
2021/12/08 19:44:56;;;;;;;14.98;5.07;;;;;;;4.30;84.85;99838.34;5046436;28;20119;-40
2021/12/08 19:47:22;;;;;;;18.48;5.93;;;;;;;4.32;84.92;99812.38;5046457;28;20033;-41
2021/12/08 19:49:47;;;;;;;19.73;5.30;;;;;;;4.32;84.60;99825.69;5029400;28;20423;-41
2021/12/08 19:52:13;;;;;;;21.42;5.07;;;;;;;4.31;84.82;99811.50;5025055;28;20400;-40
2021/12/08 19:54:40;;;;;;;22.23;5.28;;;;;;;4.32;84.67;99823.03;5022687;28;20492;-38
2021/12/08 19:57:05;;;;;;;22.63;5.60;;;;;;;4.32;84.95;99831.00;5021891;28;20038;-42
2021/12/08 19:59:30;;;;;;;15.20;4.72;;;;;;;4.33;84.88;99825.50;5021100;28;20057;-40
2021/12/08 20:01:59;;;;;;;16.30;5.13;;;;;;;4.28;85.08;99819.84;5022238;28;20034;-40
2021/12/08 20:04:24;;;;;;;;;;;;;;;4.25;84.91;99819.34;5023272;28;20026;-41
2021/12/08 20:06:50;;;;;;;18.17;5.95;;;;;;;4.20;85.33;99832.31;5021658;28;19928;-40
2021/12/08 20:09:16;;;;;;;19.45;5.82;;;;;;;4.17;85.41;99821.00;5021753;28;20048;-41
2021/12/08 20:11:44;;;;;;;19.00;5.10;;;;;;;4.12;85.88;99822.50;5020392;28;20022;-39
2021/12/08 20:14:09;;;;;;;;;;;;;;;4.11;85.62;99829.66;5021685;28;21668;-41
2021/12/08 20:16:35;;;;;;;24.15;5.18;;;;;;;4.11;85.56;99821.69;5022002;28;20050;-42
2021/12/08 20:19:00;;;;;;;15.00;4.65;;;;;;;4.11;86.16;99829.66;5021079;28;20075;-42
2021/12/08 20:21:26;;;;;;;15.27;4.53;;;;;;;4.11;86.18;99824.34;5021437;28;20025;-42
2021/12/08 20:23:51;;;;;;;15.70;5.20;;;;;;;4.10;85.77;99817.31;5022721;28;20044;-39
2021/12/08 20:26:20;;;;;;;16.23;4.88;;;;;;;4.09;86.00;99821.00;5021930;28;20036;-41
2021/12/08 20:28:47;;;;;;;19.05;4.70;;;;;;;4.08;85.78;99835.31;5021213;28;20136;-40
2021/12/08 20:31:16;;;;;;;12.82;4.38;;;;;;;4.07;86.38;99828.31;5012088;28;20044;-40
2021/12/08 20:33:41;;;;;;;17.35;4.50;;;;;;;4.06;86.47;99826.66;5008618;28;20029;-40
2021/12/08 20:36:12;;;;;;;17.88;4.40;;;;;;;4.05;86.07;99824.97;5007107;28;20494;-41
2021/12/08 20:38:39;;;;;;;16.77;5.70;;;;;;;4.05;86.48;99826.81;5008090;28;20037;-39
2021/12/08 20:41:07;;;;;;;21.40;4.65;;;;;;;4.03;86.54;99831.47;5008812;28;20398;-41
2021/12/08 20:43:35;;;;;;;12.65;4.20;;;;;;;4.00;86.52;99832.63;5007639;28;20033;-42
2021/12/08 20:46:00;;;;;;;12.55;4.15;;;;;;;3.98;86.27;99845.28;5010077;28;20042;-41
2021/12/08 20:48:26;;;;;;;18.27;4.57;;;;;;;4.00;86.51;99837.13;5010967;28;20038;-41
2021/12/08 20:50:51;;;;;;;17.88;5.63;;;;;;;3.98;86.48;99839.97;5011456;28;20080;-41
2021/12/08 20:53:17;;;;;;;14.32;4.47;;;;;;;3.93;86.85;99843.09;5011811;28;20032;-41
2021/12/08 20:55:43;;;;;;;13.18;4.07;;;;;;;3.92;86.50;99845.91;5012330;28;20034;-40
2021/12/08 20:58:09;;;;;;;16.40;4.07;;;;;;;3.93;86.78;99839.63;5012041;28;20570;-42
2021/12/08 21:00:47;;;;;;;12.52;3.90;;;;;;;3.93;86.35;99840.44;5011944;28;20030;-40
2021/12/08 21:03:15;;;;;;;10.57;4.13;;;;;;;3.93;87.02;99840.44;5011409;28;20448;-41
2021/12/08 21:05:42;;;;;;;16.02;4.55;;;;;;;3.92;86.85;99844.13;5011897;28;20032;-42
2021/12/08 21:08:08;;;;;;;17.73;4.72;;;;;;;3.92;86.70;99846.78;5014329;28;20037;-41
2021/12/08 21:10:34;;;;;;;9.23;3.75;;;;;;;3.92;86.90;99845.91;5013169;28;20057;-40
2021/12/08 21:12:59;;;;;;;12.95;4.15;;;;;;;3.94;86.91;99835.94;5019774;28;20449;-40
2021/12/08 21:15:25;;;;;;;10.23;3.90;;;;;;;3.97;86.65;99848.94;5020661;28;20030;-41
2021/12/08 21:17:52;;;;;;;7.38;4.07;;;;;;;3.93;86.84;99844.94;5014225;28;20037;-42
2021/12/08 21:20:24;;;;;;;13.68;4.10;;;;;;;3.92;86.47;99848.59;5013536;28;20099;-40
2021/12/08 21:22:54;;;;;;;9.30;3.85;;;;;;;3.95;86.28;99851.78;5013164;28;20111;-41
2021/12/08 21:25:19;;;;;;;8.30;4.22;;;;;;;3.91;86.61;99863.72;5013479;28;20052;-40
2021/12/08 21:27:44;;;;;;;9.35;4.13;;;;;;;3.88;86.33;99850.75;5013980;28;20026;-41
2021/12/08 21:30:10;;;;;;;17.23;5.40;;;;;;;3.88;86.54;99856.06;5013796;28;20043;-41
2021/12/08 21:32:36;;;;;;;20.70;4.28;;;;;;;3.86;86.68;99857.22;5013689;28;20065;-40
2021/12/08 21:35:18;;;;;;;16.52;4.57;;;;;;;3.86;86.54;99859.91;5015300;28;20033;-41
2021/12/08 21:37:44;;;;;;;18.42;4.40;;;;;;;3.86;86.92;99873.19;5024831;28;20033;-41
2021/12/08 21:40:09;;;;;;;18.95;4.80;;;;;;;3.88;86.45;99861.41;5013776;28;20040;-41
2021/12/08 21:42:35;;;;;;;14.05;4.28;;;;;;;3.84;86.71;99864.53;5013111;28;20109;-42
2021/12/08 21:45:00;;;;;;;12.18;4.40;;;;;;;3.81;87.08;99864.88;5013889;28;20444;-41
2021/12/08 21:47:29;;;;;;;16.33;5.35;;;;;;;3.80;87.10;99874.69;5013503;28;20550;-41
2021/12/08 21:49:55;;;;;;;13.20;4.55;;;;;;;3.80;86.83;99868.53;5013642;28;20109;-42
2021/12/08 21:52:20;;;;;;;22.23;6.22;;;;;;;3.80;87.21;99873.84;5013730;28;20113;-41
2021/12/08 21:54:46;;;;;;;17.90;5.25;;;;;;;3.77;86.68;99868.88;5014019;28;20034;-41
2021/12/08 21:57:11;;;;;;;17.08;4.72;;;;;;;3.74;86.92;99878.84;5013633;28;20026;-41
2021/12/08 21:59:36;;;;;;;17.40;5.00;;;;;;;3.73;86.84;99871.81;5013245;28;20137;-42
2021/12/08 22:02:02;;;;;;;16.10;5.32;;;;;;;3.69;87.42;99878.47;5013025;28;20083;-41
2021/12/08 22:04:28;;;;;;;25.92;5.13;;;;;;;3.69;87.21;99875.81;5013731;28;20026;-41
2021/12/08 22:06:54;;;;;;;16.02;5.97;;;;;;;3.66;87.07;99884.13;5013182;28;20057;-41
2021/12/08 22:09:19;;;;;;;19.45;7.00;;;;;;;3.63;87.41;99872.94;5013556;28;20477;-42
2021/12/08 22:11:44;;;;;;;17.83;5.43;;;;;;;3.62;87.55;99882.78;5013173;28;20021;-41
2021/12/08 22:14:11;;;;;;;19.70;5.18;;;;;;;3.63;87.63;99883.59;5013404;28;20432;-42
2021/12/08 22:16:37;;;;;;;21.38;5.82;;;;;;;3.59;87.68;99888.41;5013615;28;20105;-41
2021/12/08 22:19:03;;;;;;;17.77;5.28;;;;;;;3.60;87.70;99884.75;5013455;28;20055;-41
2021/12/08 22:21:28;;;;;;;14.32;5.82;;;;;;;3.59;87.71;99887.59;5013562;28;20030;-41
2021/12/08 22:23:53;;;;;;;16.73;5.63;;;;;;;3.56;87.60;99883.41;5014389;28;20080;-41
2021/12/08 22:26:20;;;;;;;12.07;4.85;;;;;;;3.54;87.97;99885.41;5014315;28;20041;-41
2021/12/08 22:28:47;;;;;;;10.60;5.38;;;;;;;3.55;87.83;99884.41;5012961;28;20500;-41
2021/12/08 22:31:13;;;;;;;22.23;6.47;;;;;;;3.54;87.74;99884.56;5013089;28;20478;-41
2021/12/08 22:33:41;;;;;;;12.73;5.10;;;;;;;3.50;87.33;99895.53;5013038;28;20018;-42
2021/12/08 22:36:06;;;;;;;;;;;;;;;3.51;88.14;99891.88;5013539;28;20072;-41
2021/12/08 22:38:31;;;;;;;16.10;6.05;;;;;;;3.51;87.88;99894.53;5012886;28;19913;-41
2021/12/08 22:40:57;;;;;;;16.10;5.93;;;;;;;3.49;87.86;99893.84;5012176;28;20105;-41
2021/12/08 22:43:25;;;;;;;20.52;6.93;;;;;;;3.47;87.97;99885.19;5011309;28;20057;-41
2021/12/08 22:45:51;;;;;;;15.93;6.15;;;;;;;3.46;87.78;99894.19;5012851;28;20033;-41
2021/12/08 22:48:16;;;;;;;13.90;5.55;;;;;;;3.41;88.22;99887.66;5011656;28;20057;-41
2021/12/08 22:50:43;;;;;;;23.58;6.45;;;;;;;3.42;87.89;99905.28;5011328;28;20072;-41
2021/12/08 22:53:10;;;;;;;18.95;6.35;;;;;;;3.42;88.25;99900.81;5012485;28;20033;-41
2021/12/08 22:55:36;;;;;;;17.30;6.07;;;;;;;3.46;87.98;99898.66;5012727;28;20216;-41
2021/12/08 22:58:03;;;;;;;11.82;5.43;;;;;;;3.49;88.67;99903.66;5012323;28;20530;-41
2021/12/08 23:00:34;;;;;;;24.85;7.00;;;;;;;3.47;88.63;99910.97;5011720;28;20057;-41
2021/12/08 23:03:01;;;;;;;19.52;6.28;;;;;;;3.48;87.80;99913.47;5012743;28;20062;-41
2021/12/08 23:05:27;;;;;;;19.77;6.00;;;;;;;3.51;88.36;99912.31;5012431;28;20069;-41
2021/12/08 23:07:55;;;;;;;18.35;5.75;;;;;;;3.49;88.08;99915.13;4994711;28;20068;-41
2021/12/08 23:10:21;;;;;;;15.10;6.72;;;;;;;3.46;88.69;99920.78;5011231;28;20029;-41
2021/12/08 23:12:47;;;;;;;20.73;6.00;;;;;;;3.46;88.59;99920.78;5012498;28;20053;-41
2021/12/08 23:15:16;;;;;;;23.95;6.13;;;;;;;3.45;88.20;99926.25;5011150;28;20060;-41
2021/12/08 23:17:44;;;;;;;16.83;6.95;;;;;;;3.42;88.16;99927.41;5012378;28;20029;-41
2021/12/08 23:20:12;;;;;;;18.67;5.80;;;;;;;3.43;87.83;99930.91;5012016;28;20053;-41
2021/12/08 23:22:38;;;;;;;24.53;6.73;;;;;;;3.40;88.25;99936.56;5012273;28;20060;-41
2021/12/08 23:25:04;;;;;;;20.73;6.05;;;;;;;3.38;88.65;99934.03;5012297;28;20034;-41
2021/12/08 23:27:30;;;;;;;16.98;6.85;;;;;;;3.36;88.86;99932.53;5027976;28;20176;-41
2021/12/08 23:29:55;;;;;;;24.92;6.72;;;;;;;3.28;88.83;99934.13;5012266;28;20038;-41
2021/12/08 23:32:20;;;;;;;14.63;6.00;;;;;;;3.26;89.29;99930.78;5012470;28;20087;-42
2021/12/08 23:35:15;;;;;;;17.80;6.78;;;;;;;3.25;88.62;99931.78;5012519;28;20026;-41
2021/12/08 23:37:47;;;;;;;25.42;6.35;;;;;;;3.25;89.34;99945.09;5010045;28;20065;-41
2021/12/08 23:40:12;;;;;;;;;;;;;;;3.25;89.39;99939.78;5012835;28;20030;-42
2021/12/08 23:42:39;;;;;;;19.30;6.32;;;;;;;3.25;88.96;99937.13;5012447;28;20392;-41
2021/12/08 23:45:05;;;;;;;20.27;6.60;;;;;;;3.22;89.49;99942.75;5012401;28;20064;-41
2021/12/08 23:47:30;;;;;;;21.70;6.65;;;;;;;3.25;89.42;99942.44;5012238;28;20120;-41
2021/12/08 23:49:56;;;;;;;23.08;5.88;;;;;;;3.32;88.90;99947.13;5011821;28;20057;-41
2021/12/08 23:52:21;;;;;;;16.05;6.15;;;;;;;3.33;88.94;99951.47;5012274;28;20034;-41
2021/12/08 23:54:46;;;;;;;26.92;6.00;;;;;;;3.28;89.06;99943.94;5010837;28;20029;-42
2021/12/08 23:57:13;;;;;;;16.77;6.07;;;;;;;3.28;88.90;99944.78;5012249;28;20018;-40
2021/12/08 23:59:43;;;;;;;23.25;6.60;;;;;;;3.26;89.47;99952.06;5011795;28;20382;-41
